Startpagina
METAR-TAF:

METAR-TAF

Vliegvelden :

Olsztyn-Mazury

Olsztyn, Polen

breedte: 53-28-55N, lengte: 20-56-16E, hoogte: 141 m

Actueel weer

Dit bericht is 39 minuten geleden gemaakt, om 12:30 UTC
Wind 14 kt uit het zuidoosten met uitschieters tot 25 kt, variërend tussen het oosten en het zuiden
Temperatuur 1°C
Vochtigheid 86%
Druk 1022 hPa
Zicht 10 km of meer
Gebroken wolken op 1500 ft

METAR: EPSY 221230Z 14014G25KT 100V170 9999 BKN015 01/M01 Q1022

Tijdstip: 14:09 (13:09 UTC)

Verwachting

Dit bericht is 1 uur en het 39 minuten geleden gemaakt, om 11:30 UTC
Verwachting geldig van 22 om 12 UTC tot 22 om 21 UTC
Wind 10 kt uit het zuidoosten
Zicht 10 km of meer
Gebroken wolken op 1500 ft
Tijdelijke
van 22 om 12 UTC tot 22 om 21 UTC
Wind 15 kt uit het zuidoosten met uitschieters tot 25 kt

TAF: EPSY 221130Z 2212/2221 14010KT 9999 BKN015 TEMPO 2212/2221 14015G25KT

Waarnemingen en weersverwachtingen van meer dan 4000 vliegvelden (METAR en TAF).

De beschikbare stations zijn de gele en rode punten op de kaart.

Ga met uw muis naar het station om de naam te zien.

Klik dan om waarnemingen en weersverwachtingen te zien.

kaart wijzigen: klik op de groene knoppen met een zwart kruis om in te zoomen, op de groene knop met een streepje om uit te zoomen of op de groene pijlen voor aangrenzende kaarten.


METAR-TAF: